Time;durP1;ratioP1;P1;durP2;ratioP2;P2;SDS_P1;SDS_P2;PMS_P1;PMS_P2;Temp;Humidity;BMP_temperature;BMP_pressure;BME280_temperature;BME280_humidity;BME280_pressure;Samples;Min_cycle;Max_cycle;Signal;HPM_P1;HPM_P2
2021/07/30 00:01:59;;;;;;;6.50;4.40;;;;;;;;;;5085434;28;20223;-65
2021/07/30 00:04:27;;;;;;;6.67;4.10;;;;;;;;;;5097333;28;20277;-65
2021/07/30 00:06:55;;;;;;;5.40;4.40;;;;;;;;;;5117465;28;20291;-65
2021/07/30 00:09:23;;;;;;;5.80;4.17;;;;;;;;;;5086916;28;20220;-65
2021/07/30 00:11:51;;;;;;;5.10;3.60;;;;;;;;;;5085076;28;20222;-65
2021/07/30 00:14:20;;;;;;;5.03;4.10;;;;;;;;;;5086435;28;20198;-65
2021/07/30 00:16:48;;;;;;;5.40;3.97;;;;;;;;;;5099983;28;20202;-65
2021/07/30 00:19:16;;;;;;;5.70;4.53;;;;;;;;;;5086078;28;20202;-65
2021/07/30 00:21:44;;;;;;;7.43;4.23;;;;;;;;;;5088354;28;20219;-65
2021/07/30 00:24:12;;;;;;;6.03;3.30;;;;;;;;;;5088856;28;20205;-65
2021/07/30 00:26:40;;;;;;;4.60;4.20;;;;;;;;;;5098565;28;20252;-65
2021/07/30 00:29:08;;;;;;;4.40;3.87;;;;;;;;;;5090775;28;20588;-65
2021/07/30 00:31:37;;;;;;;5.47;4.00;;;;;;;;;;5095324;28;20305;-65
2021/07/30 00:34:05;;;;;;;4.17;3.70;;;;;;;;;;5082373;28;20198;-65
2021/07/30 00:36:33;;;;;;;4.73;4.03;;;;;;;;;;5081501;28;20206;-65
2021/07/30 00:39:01;;;;;;;4.33;3.93;;;;;;;;;;5086898;28;20299;-65
2021/07/30 00:41:35;;;;;;;4.70;4.20;;;;;;;;;;5088142;28;20693;-65
2021/07/30 00:44:03;;;;;;;6.60;4.33;;;;;;;;;;5091674;28;20630;-65
2021/07/30 00:46:31;;;;;;;5.20;4.20;;;;;;;;;;5098374;28;20198;-65
2021/07/30 00:49:00;;;;;;;9.93;4.20;;;;;;;;;;5099578;28;20208;-65
2021/07/30 00:51:28;;;;;;;5.40;3.90;;;;;;;;;;5086829;28;20307;-65
2021/07/30 00:53:56;;;;;;;4.67;3.93;;;;;;;;;;5097695;28;20207;-65
2021/07/30 00:56:24;;;;;;;5.73;4.10;;;;;;;;;;5086591;28;20218;-65
2021/07/30 00:58:53;;;;;;;6.03;3.93;;;;;;;;;;5081081;28;20218;-65
2021/07/30 01:01:21;;;;;;;7.00;4.10;;;;;;;;;;5087668;28;20235;-65
2021/07/30 01:03:49;;;;;;;6.67;4.13;;;;;;;;;;5088153;28;20201;-65
2021/07/30 01:06:18;;;;;;;4.53;3.97;;;;;;;;;;5119007;28;20224;-65
2021/07/30 01:08:46;;;;;;;4.20;3.80;;;;;;;;;;5108345;28;20671;-65
2021/07/30 01:11:14;;;;;;;4.00;3.60;;;;;;;;;;5098271;28;20247;-65
2021/07/30 01:13:42;;;;;;;5.83;4.57;;;;;;;;;;5084033;28;20207;-65
2021/07/30 01:16:10;;;;;;;4.60;4.07;;;;;;;;;;5077551;28;20198;-65
2021/07/30 01:18:38;;;;;;;7.13;4.30;;;;;;;;;;5080174;28;20198;-65
2021/07/30 01:21:09;;;;;;;6.47;4.00;;;;;;;;;;5097128;28;20206;-65
2021/07/30 01:23:39;;;;;;;5.43;4.37;;;;;;;;;;5098716;28;20216;-63
2021/07/30 01:26:06;;;;;;;4.47;3.97;;;;;;;;;;5081886;28;20218;-65
2021/07/30 01:28:34;;;;;;;6.10;4.80;;;;;;;;;;5083004;28;20205;-65
2021/07/30 01:31:02;;;;;;;6.43;4.40;;;;;;;;;;5089859;28;20202;-65
2021/07/30 01:33:30;;;;;;;4.73;3.77;;;;;;;;;;5078980;28;20209;-65
2021/07/30 01:35:58;;;;;;;7.53;5.10;;;;;;;;;;5092897;28;20203;-65
2021/07/30 01:38:26;;;;;;;4.80;4.30;;;;;;;;;;5091441;28;20237;-65
2021/07/30 01:41:08;;;;;;;6.97;3.93;;;;;;;;;;5084816;28;20204;-66
2021/07/30 01:43:37;;;;;;;4.87;3.93;;;;;;;;;;5089581;28;20200;-65
2021/07/30 01:46:05;;;;;;;5.90;5.33;;;;;;;;;;5089364;28;20237;-65
2021/07/30 01:48:33;;;;;;;5.23;3.90;;;;;;;;;;5094330;28;20232;-65
2021/07/30 01:51:01;;;;;;;4.83;4.33;;;;;;;;;;5080777;28;20284;-65
2021/07/30 01:53:29;;;;;;;6.20;4.47;;;;;;;;;;5093218;28;20267;-64
2021/07/30 01:56:03;;;;;;;5.17;4.00;;;;;;;;;;5090521;28;20200;-63
2021/07/30 01:58:32;;;;;;;5.40;4.47;;;;;;;;;;5079940;28;20261;-64
2021/07/30 02:00:59;;;;;;;4.63;3.43;;;;;;;;;;5090674;28;20226;-65
2021/07/30 02:03:28;;;;;;;5.37;4.67;;;;;;;;;;5079588;28;20576;-65
2021/07/30 02:05:56;;;;;;;7.27;4.13;;;;;;;;;;5098085;28;20233;-65
2021/07/30 02:08:24;;;;;;;7.40;4.30;;;;;;;;;;5096444;28;20205;-65
2021/07/30 02:10:53;;;;;;;6.23;4.13;;;;;;;;;;5084586;28;20205;-65
2021/07/30 02:16:08;;;;;;;5.93;4.30;;;;;;;;;;5084896;28;20261;-65
2021/07/30 02:18:36;;;;;;;4.37;3.90;;;;;;;;;;5095429;28;20626;-65
2021/07/30 02:21:04;;;;;;;5.93;3.90;;;;;;;;;;5088939;28;20545;-65
2021/07/30 02:23:32;;;;;;;4.47;3.73;;;;;;;;;;5093041;28;20216;-65
2021/07/30 02:26:00;;;;;;;5.73;3.87;;;;;;;;;;5089145;28;20235;-65
2021/07/30 02:28:29;;;;;;;4.50;3.27;;;;;;;;;;5077227;28;20210;-65
2021/07/30 02:30:57;;;;;;;4.60;4.20;;;;;;;;;;5090898;28;20205;-65
2021/07/30 02:33:25;;;;;;;5.33;4.33;;;;;;;;;;5085543;28;20608;-65
2021/07/30 02:35:53;;;;;;;9.50;4.40;;;;;;;;;;5094297;28;20759;-65
2021/07/30 02:38:21;;;;;;;4.40;3.90;;;;;;;;;;5087989;28;20212;-65
2021/07/30 02:40:49;;;;;;;5.73;4.87;;;;;;;;;;5094689;28;20735;-65
2021/07/30 02:43:17;;;;;;;5.00;4.10;;;;;;;;;;5087074;28;20230;-65
2021/07/30 02:45:47;;;;;;;4.40;3.67;;;;;;;;;;5091152;28;20234;-65
2021/07/30 02:48:15;;;;;;;3.80;3.50;;;;;;;;;;5079774;28;20683;-65
2021/07/30 02:50:43;;;;;;;5.33;4.10;;;;;;;;;;5082366;28;20203;-65
2021/07/30 02:53:11;;;;;;;6.27;4.30;;;;;;;;;;5079303;28;20222;-65
2021/07/30 02:55:39;;;;;;;5.40;4.30;;;;;;;;;;5093565;28;20274;-65
2021/07/30 02:58:07;;;;;;;6.27;4.03;;;;;;;;;;5090119;28;20715;-65
2021/07/30 03:00:35;;;;;;;4.87;4.17;;;;;;;;;;5092305;28;20212;-65
2021/07/30 03:03:04;;;;;;;5.37;3.60;;;;;;;;;;5093426;28;20224;-65
2021/07/30 03:05:32;;;;;;;6.60;4.30;;;;;;;;;;5097727;28;20201;-65
2021/07/30 03:08:00;;;;;;;5.93;3.57;;;;;;;;;;5101277;28;20294;-65
2021/07/30 03:10:28;;;;;;;5.10;4.20;;;;;;;;;;5087560;28;20209;-65
2021/07/30 03:12:56;;;;;;;4.67;4.10;;;;;;;;;;5093280;28;20226;-65
2021/07/30 03:15:24;;;;;;;6.80;5.17;;;;;;;;;;5088028;28;20206;-64
2021/07/30 03:17:52;;;;;;;4.40;4.00;;;;;;;;;;5100029;28;20629;-64
2021/07/30 03:20:21;;;;;;;6.40;4.10;;;;;;;;;;5097775;28;20208;-64
2021/07/30 03:22:49;;;;;;;7.10;3.93;;;;;;;;;;5080515;28;20232;-64
2021/07/30 03:25:17;;;;;;;6.57;4.23;;;;;;;;;;5098976;28;20212;-64
2021/07/30 03:27:45;;;;;;;4.37;3.97;;;;;;;;;;5090273;28;20228;-64
2021/07/30 03:30:15;;;;;;;4.83;4.23;;;;;;;;;;5101274;28;20211;-63
2021/07/30 03:32:43;;;;;;;7.47;4.10;;;;;;;;;;5092556;28;20246;-65
2021/07/30 03:35:12;;;;;;;6.13;4.57;;;;;;;;;;5090802;28;20203;-62
2021/07/30 03:37:41;;;;;;;4.80;4.30;;;;;;;;;;5101085;28;20285;-63
2021/07/30 03:40:09;;;;;;;7.30;4.83;;;;;;;;;;5100099;28;20206;-64
2021/07/30 03:42:37;;;;;;;6.10;4.30;;;;;;;;;;5086989;28;20253;-64
2021/07/30 03:45:06;;;;;;;5.07;3.70;;;;;;;;;;5088088;28;20215;-62
2021/07/30 03:47:34;;;;;;;6.70;4.23;;;;;;;;;;5087175;28;20310;-63
2021/07/30 03:50:02;;;;;;;6.73;4.50;;;;;;;;;;5100899;28;20208;-62
2021/07/30 03:52:30;;;;;;;5.10;3.87;;;;;;;;;;5087798;28;20223;-63
2021/07/30 03:55:00;;;;;;;5.17;3.87;;;;;;;;;;5086674;28;20203;-63
2021/07/30 03:57:28;;;;;;;5.73;4.30;;;;;;;;;;5095425;28;20286;-63
2021/07/30 03:59:56;;;;;;;6.13;4.10;;;;;;;;;;5082664;28;20540;-65
2021/07/30 04:02:28;;;;;;;5.83;4.87;;;;;;;;;;5098011;28;20692;-64
2021/07/30 04:04:56;;;;;;;5.60;4.20;;;;;;;;;;5108982;28;20210;-62
2021/07/30 04:07:24;;;;;;;5.47;4.23;;;;;;;;;;5086566;28;20227;-63
2021/07/30 04:09:54;;;;;;;6.90;3.87;;;;;;;;;;5100433;28;20202;-65
2021/07/30 04:12:23;;;;;;;7.27;4.27;;;;;;;;;;5087201;28;20223;-65
2021/07/30 04:14:51;;;;;;;5.43;4.20;;;;;;;;;;5099872;28;20292;-65
2021/07/30 04:17:19;;;;;;;4.63;4.07;;;;;;;;;;5087138;28;20201;-64
2021/07/30 04:19:47;;;;;;;6.70;4.30;;;;;;;;;;5099333;28;20687;-65
2021/07/30 04:22:15;;;;;;;5.13;4.10;;;;;;;;;;5085342;28;20225;-65
2021/07/30 04:24:43;;;;;;;7.07;4.20;;;;;;;;;;5083716;28;20195;-65
2021/07/30 04:27:11;;;;;;;4.60;4.13;;;;;;;;;;5086985;28;20704;-65
2021/07/30 04:29:41;;;;;;;4.23;3.83;;;;;;;;;;5079003;28;20202;-65
2021/07/30 04:32:10;;;;;;;6.87;4.23;;;;;;;;;;5094704;28;20238;-65
2021/07/30 04:34:38;;;;;;;4.33;3.80;;;;;;;;;;5085433;28;20271;-65
2021/07/30 04:37:06;;;;;;;6.20;4.07;;;;;;;;;;5092650;28;20197;-65
2021/07/30 04:39:34;;;;;;;5.70;3.70;;;;;;;;;;5095902;28;20255;-65
2021/07/30 04:42:02;;;;;;;5.60;4.13;;;;;;;;;;5089262;28;20237;-65
2021/07/30 04:44:32;;;;;;;8.60;4.33;;;;;;;;;;5098596;28;20732;-64
2021/07/30 04:47:02;;;;;;;4.30;3.90;;;;;;;;;;5088056;28;20304;-63
2021/07/30 04:49:30;;;;;;;5.50;4.13;;;;;;;;;;5091691;28;20200;-64
2021/07/30 04:52:00;;;;;;;5.33;4.40;;;;;;;;;;5080514;28;20231;-64
2021/07/30 04:54:28;;;;;;;7.20;4.33;;;;;;;;;;5089139;28;20206;-65
2021/07/30 04:56:56;;;;;;;7.17;6.03;;;;;;;;;;5087646;28;20558;-61
2021/07/30 04:59:24;;;;;;;8.00;4.83;;;;;;;;;;5089260;28;20202;-63
2021/07/30 05:01:52;;;;;;;4.87;4.33;;;;;;;;;;5098981;28;20226;-61
2021/07/30 05:04:26;;;;;;;9.03;4.93;;;;;;;;;;5092126;28;20207;-61
2021/07/30 05:06:56;;;;;;;4.77;4.23;;;;;;;;;;5080198;28;20223;-60
2021/07/30 05:09:24;;;;;;;5.73;4.17;;;;;;;;;;5099175;28;20291;-61
2021/07/30 05:11:52;;;;;;;4.37;3.97;;;;;;;;;;5087634;28;20224;-63
2021/07/30 05:14:20;;;;;;;7.30;4.97;;;;;;;;;;5098562;28;20205;-61
2021/07/30 05:16:48;;;;;;;5.37;4.50;;;;;;;;;;5096884;28;20198;-62
2021/07/30 05:19:17;;;;;;;5.57;4.80;;;;;;;;;;5098065;28;20201;-61
2021/07/30 05:21:47;;;;;;;7.37;4.57;;;;;;;;;;5094745;28;20698;-61
2021/07/30 05:24:15;;;;;;;5.97;4.90;;;;;;;;;;5093731;28;20266;-61
2021/07/30 05:26:43;;;;;;;9.67;5.23;;;;;;;;;;5095309;28;20193;-62
2021/07/30 05:29:11;;;;;;;5.63;4.47;;;;;;;;;;5081619;28;20210;-63
2021/07/30 05:31:39;;;;;;;6.27;4.73;;;;;;;;;;5095024;28;20220;-63
2021/07/30 05:34:07;;;;;;;11.57;5.40;;;;;;;;;;5100239;28;20200;-63
2021/07/30 05:36:35;;;;;;;9.13;5.23;;;;;;;;;;5103792;28;20197;-63
2021/07/30 05:39:05;;;;;;;8.13;4.80;;;;;;;;;;5106471;28;20200;-63
2021/07/30 05:41:33;;;;;;;9.00;5.47;;;;;;;;;;5099895;28;20253;-63
2021/07/30 05:44:01;;;;;;;7.17;4.67;;;;;;;;;;5106583;28;20655;-62
2021/07/30 05:46:28;;;;;;;6.60;4.70;;;;;;;;;;5100805;28;20197;-63
2021/07/30 05:48:57;;;;;;;6.07;4.70;;;;;;;;;;5104626;28;20217;-63
2021/07/30 05:51:25;;;;;;;7.97;5.03;;;;;;;;;;5101027;28;20245;-62
2021/07/30 05:53:52;;;;;;;5.10;4.60;;;;;;;;;;5097227;28;20209;-63
2021/07/30 05:56:22;;;;;;;7.67;5.17;;;;;;;;;;5106378;28;20208;-63
2021/07/30 05:58:50;;;;;;;7.53;4.83;;;;;;;;;;5096306;28;20685;-63
2021/07/30 06:01:18;;;;;;;8.37;6.70;;;;;;;;;;5101387;28;20729;-63
2021/07/30 06:03:47;;;;;;;6.20;4.33;;;;;;;;;;5083066;28;20287;-63
2021/07/30 06:06:15;;;;;;;6.10;4.53;;;;;;;;;;5076801;28;20203;-63
2021/07/30 06:08:44;;;;;;;6.47;5.00;;;;;;;;;;5076819;28;20219;-63
2021/07/30 06:11:12;;;;;;;6.20;4.80;;;;;;;;;;5084317;28;20223;-63
2021/07/30 06:13:42;;;;;;;9.77;4.97;;;;;;;;;;5080637;28;20201;-63
2021/07/30 06:16:10;;;;;;;4.97;4.47;;;;;;;;;;5079940;28;20282;-63
2021/07/30 06:18:58;;;;;;;9.00;5.33;;;;;;;;;;5083240;28;20206;-64
2021/07/30 06:21:26;;;;;;;25.77;16.93;;;;;;;;;;5079214;28;20720;-65
2021/07/30 06:23:54;;;;;;;7.07;5.13;;;;;;;;;;5076233;28;20578;-63
2021/07/30 06:26:22;;;;;;;6.53;5.07;;;;;;;;;;5085981;28;20204;-64
2021/07/30 06:28:51;;;;;;;6.80;4.77;;;;;;;;;;5086078;28;20222;-63
2021/07/30 06:31:19;;;;;;;7.90;4.70;;;;;;;;;;5089232;28;20221;-64
2021/07/30 06:33:47;;;;;;;7.63;5.07;;;;;;;;;;5097171;28;20221;-64
2021/07/30 06:36:16;;;;;;;6.20;5.13;;;;;;;;;;5086809;28;20207;-69
2021/07/30 06:38:44;;;;;;;7.43;4.60;;;;;;;;;;5080116;28;20194;-64
2021/07/30 06:41:17;;;;;;;7.93;4.47;;;;;;;;;;5086724;28;20646;-64
2021/07/30 06:43:45;;;;;;;5.90;4.67;;;;;;;;;;5093024;28;20244;-64
2021/07/30 06:46:14;;;;;;;6.73;4.60;;;;;;;;;;5087621;28;20217;-65
2021/07/30 06:48:42;;;;;;;9.33;5.00;;;;;;;;;;5092809;28;20245;-64
2021/07/30 06:51:11;;;;;;;8.27;6.97;;;;;;;;;;5089832;28;20663;-65
2021/07/30 06:53:38;;;;;;;11.93;4.90;;;;;;;;;;5084789;28;20212;-64
2021/07/30 06:56:10;;;;;;;6.20;4.80;;;;;;;;;;5088058;28;20212;-65
2021/07/30 06:58:43;;;;;;;7.97;4.60;;;;;;;;;;5090561;28;20201;-65
2021/07/30 07:01:11;;;;;;;9.13;5.90;;;;;;;;;;5075956;28;20288;-65
2021/07/30 07:03:40;;;;;;;9.07;5.73;;;;;;;;;;5086922;28;20204;-64
2021/07/30 07:06:13;;;;;;;6.53;5.73;;;;;;;;;;5092276;28;20635;-65
2021/07/30 07:08:41;;;;;;;6.87;5.37;;;;;;;;;;5089079;28;20220;-65
2021/07/30 07:11:09;;;;;;;10.27;6.27;;;;;;;;;;5087162;28;20205;-65
2021/07/30 07:13:38;;;;;;;6.53;5.80;;;;;;;;;;5098313;28;20201;-66
2021/07/30 07:16:06;;;;;;;8.77;6.30;;;;;;;;;;5101901;28;20231;-67
2021/07/30 07:18:34;;;;;;;6.50;5.07;;;;;;;;;;5102587;28;20200;-64
2021/07/30 07:21:04;;;;;;;8.37;5.37;;;;;;;;;;5103175;28;20227;-64
2021/07/30 07:23:32;;;;;;;8.67;5.93;;;;;;;;;;5113078;28;20679;-64
2021/07/30 07:26:00;;;;;;;7.97;5.33;;;;;;;;;;5107369;28;20213;-64
2021/07/30 07:28:28;;;;;;;9.17;5.83;;;;;;;;;;5096775;28;20239;-64
2021/07/30 07:30:56;;;;;;;6.37;5.73;;;;;;;;;;5096554;28;20209;-64
2021/07/30 07:33:24;;;;;;;8.90;6.03;;;;;;;;;;5096936;28;20220;-64
2021/07/30 07:35:54;;;;;;;8.47;5.90;;;;;;;;;;5096546;28;20269;-64
2021/07/30 07:38:24;;;;;;;11.53;5.60;;;;;;;;;;5104344;28;20679;-64
2021/07/30 07:40:52;;;;;;;10.77;5.30;;;;;;;;;;5103457;28;20270;-64
2021/07/30 07:43:20;;;;;;;9.63;6.30;;;;;;;;;;5107587;28;20592;-64
2021/07/30 07:45:48;;;;;;;8.33;4.60;;;;;;;;;;5103757;28;20283;-64
2021/07/30 07:48:16;;;;;;;8.77;4.80;;;;;;;;;;5090345;28;20223;-64
2021/07/30 07:50:44;;;;;;;5.03;4.00;;;;;;;;;;5091114;28;20653;-64
2021/07/30 07:53:15;;;;;;;6.23;5.53;;;;;;;;;;5099537;28;20308;-64
2021/07/30 07:56:02;;;;;;;7.27;4.63;;;;;;;;;;5106566;28;20205;-64
2021/07/30 07:58:31;;;;;;;8.13;4.67;;;;;;;;;;5107780;28;20618;-64
2021/07/30 08:01:00;;;;;;;8.63;4.53;;;;;;;;;;5100798;28;20210;-64
2021/07/30 08:03:28;;;;;;;7.27;4.73;;;;;;;;;;5103669;28;20621;-64
2021/07/30 08:05:56;;;;;;;5.40;4.40;;;;;;;;;;5085329;28;20207;-64
2021/07/30 08:08:24;;;;;;;5.27;4.77;;;;;;;;;;5091418;28;20579;-64
2021/07/30 08:10:53;;;;;;;7.47;4.60;;;;;;;;;;5089566;28;20630;-64
2021/07/30 08:13:21;;;;;;;6.07;4.57;;;;;;;;;;5090444;28;20226;-64
2021/07/30 08:15:49;;;;;;;6.53;4.57;;;;;;;;;;5088376;28;20202;-64
2021/07/30 08:18:17;;;;;;;7.47;4.33;;;;;;;;;;5093691;28;20221;-64
2021/07/30 08:20:45;;;;;;;7.57;4.40;;;;;;;;;;5090624;28;20198;-64
2021/07/30 08:23:13;;;;;;;5.67;3.87;;;;;;;;;;5090501;28;20264;-64
2021/07/30 08:25:41;;;;;;;5.80;4.10;;;;;;;;;;5091053;28;20208;-64
2021/07/30 08:28:10;;;;;;;6.67;4.47;;;;;;;;;;5092667;28;20205;-64
2021/07/30 08:30:38;;;;;;;6.07;4.97;;;;;;;;;;5092787;28;20762;-64
2021/07/30 08:33:06;;;;;;;5.27;4.13;;;;;;;;;;5107541;28;20230;-64
2021/07/30 08:35:34;;;;;;;4.80;4.40;;;;;;;;;;5097001;28;20198;-64
2021/07/30 08:38:02;;;;;;;5.43;4.90;;;;;;;;;;5097492;28;20679;-64
2021/07/30 08:40:31;;;;;;;7.70;4.37;;;;;;;;;;5101651;28;20533;-64
2021/07/30 08:43:00;;;;;;;5.40;4.27;;;;;;;;;;5104036;28;20231;-64
2021/07/30 08:45:29;;;;;;;5.90;4.90;;;;;;;;;;5098713;28;20472;-64
2021/07/30 08:48:00;;;;;;;8.10;5.13;;;;;;;;;;5110468;28;20214;-64
2021/07/30 08:50:28;;;;;;;7.03;5.30;;;;;;;;;;5119585;28;20226;-63
2021/07/30 08:52:57;;;;;;;8.87;4.57;;;;;;;;;;5120589;28;20224;-64
2021/07/30 08:55:29;;;;;;;9.47;5.57;;;;;;;;;;5118016;28;20203;-65
2021/07/30 08:57:57;;;;;;;9.07;4.97;;;;;;;;;;5118903;28;20215;-64
2021/07/30 09:00:25;;;;;;;9.90;5.30;;;;;;;;;;5118795;28;20659;-66
2021/07/30 09:02:56;;;;;;;5.23;4.73;;;;;;;;;;5118643;28;20224;-63
2021/07/30 09:05:28;;;;;;;6.83;5.30;;;;;;;;;;5100163;28;20204;-64
2021/07/30 09:07:56;;;;;;;5.90;4.63;;;;;;;;;;5098771;28;20249;-64
2021/07/30 09:10:27;;;;;;;9.10;5.20;;;;;;;;;;5098656;28;20234;-64
2021/07/30 09:13:10;;;;;;;5.57;4.80;;;;;;;;;;5098798;28;20229;-64
2021/07/30 09:15:38;;;;;;;6.93;5.43;;;;;;;;;;5096501;28;20208;-64
2021/07/30 09:18:08;;;;;;;11.03;5.60;;;;;;;;;;5114790;28;20207;-64
2021/07/30 09:20:36;;;;;;;8.77;5.47;;;;;;;;;;5118726;28;20208;-64
2021/07/30 09:23:03;;;;;;;8.93;6.17;;;;;;;;;;5101119;28;20248;-64
2021/07/30 09:25:33;;;;;;;17.90;11.17;;;;;;;;;;5097583;28;20295;-64
2021/07/30 09:28:04;;;;;;;7.80;6.43;;;;;;;;;;5098089;28;20678;-64
2021/07/30 09:30:32;;;;;;;16.00;7.17;;;;;;;;;;5102394;28;20306;-71
2021/07/30 09:33:00;;;;;;;12.53;6.80;;;;;;;;;;5098822;27;20227;-72
2021/07/30 09:35:30;;;;;;;10.70;7.03;;;;;;;;;;5102574;28;20664;-66
2021/07/30 09:38:16;;;;;;;8.37;5.67;;;;;;;;;;5101143;28;20237;-65
2021/07/30 09:40:44;;;;;;;8.63;6.57;;;;;;;;;;5090311;28;20553;-66
2021/07/30 09:43:22;;;;;;;12.77;8.27;;;;;;;;;;5098016;28;20244;-65
2021/07/30 09:45:51;;;;;;;11.57;6.67;;;;;;;;;;5098131;28;20212;-65
2021/07/30 09:48:20;;;;;;;7.63;6.60;;;;;;;;;;5098007;28;20593;-65
2021/07/30 09:50:49;;;;;;;10.47;6.43;;;;;;;;;;5097983;28;20308;-69
2021/07/30 09:53:17;;;;;;;11.47;6.60;;;;;;;;;;5097820;28;20231;-68
2021/07/30 09:55:45;;;;;;;11.53;7.00;;;;;;;;;;5094021;28;20591;-66
2021/07/30 09:58:13;;;;;;;12.60;7.17;;;;;;;;;;5104128;28;20265;-66
2021/07/30 10:00:43;;;;;;;11.20;6.60;;;;;;;;;;5102533;28;20260;-68
2021/07/30 10:03:11;;;;;;;8.77;6.67;;;;;;;;;;5105140;28;20238;-67
2021/07/30 10:05:39;;;;;;;11.20;6.73;;;;;;;;;;5105163;28;20663;-65
2021/07/30 10:08:09;;;;;;;8.17;7.13;;;;;;;;;;5104786;28;20206;-67
2021/07/30 10:10:39;;;;;;;9.73;7.13;;;;;;;;;;5102616;28;20229;-67
2021/07/30 10:13:13;;;;;;;12.30;7.63;;;;;;;;;;5096534;28;20293;-66
2021/07/30 10:15:43;;;;;;;12.57;7.07;;;;;;;;;;5092155;28;20210;-66
2021/07/30 10:18:12;;;;;;;8.33;6.50;;;;;;;;;;5097134;28;20205;-67
2021/07/30 10:20:42;;;;;;;8.33;7.53;;;;;;;;;;5096996;28;20629;-69
2021/07/30 10:23:13;;;;;;;8.23;7.40;;;;;;;;;;5096875;28;20232;-67
2021/07/30 10:25:42;;;;;;;10.83;7.50;;;;;;;;;;5096537;28;20207;-67
2021/07/30 10:28:11;;;;;;;9.73;7.67;;;;;;;;;;5092388;28;20263;-67
2021/07/30 10:30:52;;;;;;;10.93;7.53;;;;;;;;;;5096571;28;20264;-67
2021/07/30 10:33:34;;;;;;;10.50;7.47;;;;;;;;;;5086485;28;20260;-66
2021/07/30 10:36:04;;;;;;;9.80;7.93;;;;;;;;;;5097274;28;20211;-67
2021/07/30 10:38:34;;;;;;;7.77;6.93;;;;;;;;;;5096914;28;20295;-66
2021/07/30 10:41:15;;;;;;;10.93;7.37;;;;;;;;;;5096222;28;20250;-67
2021/07/30 10:44:04;;;;;;;10.43;7.83;;;;;;;;;;5096930;28;20245;-66
2021/07/30 10:46:32;;;;;;;11.27;8.13;;;;;;;;;;5092006;28;20209;-69
2021/07/30 10:49:00;;;;;;;11.57;8.57;;;;;;;;;;5089151;28;20289;-68
2021/07/30 10:51:28;;;;;;;11.80;8.00;;;;;;;;;;5096961;28;20637;-69
2021/07/30 10:53:59;;;;;;;13.20;7.87;;;;;;;;;;5097259;28;20215;-69
2021/07/30 10:56:48;;;;;;;11.37;7.63;;;;;;;;;;5097047;28;20214;-69
2021/07/30 10:59:20;;;;;;;21.03;8.27;;;;;;;;;;5097440;28;20213;-68
2021/07/30 11:02:01;;;;;;;9.93;7.70;;;;;;;;;;5097159;28;20224;-67
2021/07/30 11:04:30;;;;;;;8.37;7.43;;;;;;;;;;5097221;28;20615;-67
2021/07/30 11:06:58;;;;;;;12.70;7.93;;;;;;;;;;5096256;28;20288;-66
2021/07/30 11:09:36;;;;;;;13.23;8.77;;;;;;;;;;5104286;28;20204;-67
2021/07/30 11:12:07;;;;;;;11.77;8.00;;;;;;;;;;5101707;28;20258;-66
2021/07/30 11:14:36;;;;;;;12.23;7.47;;;;;;;;;;5105670;28;20197;-64
2021/07/30 11:17:05;;;;;;;10.90;7.67;;;;;;;;;;5094960;28;20198;-64
2021/07/30 11:19:33;;;;;;;11.30;7.33;;;;;;;;;;5079873;28;20262;-66
2021/07/30 11:22:02;;;;;;;11.00;8.10;;;;;;;;;;5103112;28;20692;-64
2021/07/30 11:24:36;;;;;;;11.57;7.70;;;;;;;;;;5108792;28;20207;-66
2021/07/30 11:27:06;;;;;;;11.93;8.20;;;;;;;;;;5096020;28;20287;-64
2021/07/30 11:29:34;;;;;;;10.13;7.50;;;;;;;;;;5102803;28;20206;-63
2021/07/30 11:32:03;;;;;;;8.97;7.90;;;;;;;;;;5108588;28;20227;-66
2021/07/30 11:34:32;;;;;;;11.13;7.57;;;;;;;;;;5107337;28;20632;-64
2021/07/30 11:37:01;;;;;;;9.07;7.60;;;;;;;;;;5105931;28;20207;-64
2021/07/30 11:39:30;;;;;;;9.30;7.33;;;;;;;;;;5098162;28;20207;-64
2021/07/30 11:41:59;;;;;;;9.63;7.10;;;;;;;;;;5100026;28;20330;-64
2021/07/30 11:44:28;;;;;;;7.37;5.77;;;;;;;;;;5099902;28;20569;-65
2021/07/30 11:46:58;;;;;;;7.70;5.60;;;;;;;;;;5100404;28;20233;-65
2021/07/30 11:49:30;;;;;;;8.70;6.00;;;;;;;;;;5099653;28;20661;-65
2021/07/30 11:51:58;;;;;;;6.80;5.63;;;;;;;;;;5099031;28;20235;-65
2021/07/30 11:54:26;;;;;;;7.57;6.23;;;;;;;;;;5102769;28;20612;-64
2021/07/30 11:56:54;;;;;;;452.07;346.93;;;;;;;;;;5104213;28;20201;-65
2021/07/30 11:59:24;;;;;;;1157.30;822.53;;;;;;;;;;5107727;28;20209;-64
2021/07/30 12:02:04;;;;;;;402.90;298.43;;;;;;;;;;5101897;28;20216;-64
2021/07/30 12:04:33;;;;;;;39.30;27.73;;;;;;;;;;5106459;28;20208;-64
2021/07/30 12:07:05;;;;;;;15.93;12.50;;;;;;;;;;5106344;28;20202;-64
2021/07/30 12:09:34;;;;;;;19.50;13.87;;;;;;;;;;5107233;28;20205;-64
2021/07/30 12:12:04;;;;;;;8.87;6.90;;;;;;;;;;5084121;28;20308;-63
2021/07/30 12:14:34;;;;;;;9.00;6.40;;;;;;;;;;5086262;28;20250;-63
2021/07/30 12:17:03;;;;;;;7.80;6.33;;;;;;;;;;5092497;28;20202;-63
2021/07/30 12:19:31;;;;;;;7.90;6.33;;;;;;;;;;5099451;28;20218;-63
2021/07/30 12:22:01;;;;;;;7.00;6.27;;;;;;;;;;5099740;28;20228;-63
2021/07/30 12:24:29;;;;;;;8.90;6.93;;;;;;;;;;5087503;28;20220;-64
2021/07/30 12:26:57;;;;;;;9.20;7.23;;;;;;;;;;5090435;28;20269;-64
2021/07/30 12:29:41;;;;;;;8.80;6.77;;;;;;;;;;5101639;28;20211;-64
2021/07/30 12:32:16;;;;;;;7.77;6.90;;;;;;;;;;5099283;28;20232;-64
2021/07/30 12:34:57;;;;;;;7.60;6.80;;;;;;;;;;5091426;28;20250;-63
2021/07/30 12:37:26;;;;;;;8.70;7.20;;;;;;;;;;5077864;28;20205;-64
2021/07/30 12:39:55;;;;;;;7.70;6.90;;;;;;;;;;5087507;28;20207;-64
2021/07/30 12:42:24;;;;;;;10.77;7.57;;;;;;;;;;5081416;28;20233;-64
2021/07/30 12:45:03;;;;;;;7.77;6.57;;;;;;;;;;5083086;28;20215;-63
2021/07/30 12:47:31;;;;;;;12.97;7.23;;;;;;;;;;5077629;28;20293;-64
2021/07/30 12:49:59;;;;;;;9.43;6.53;;;;;;;;;;5093936;28;20210;-64
2021/07/30 12:52:27;;;;;;;8.43;6.23;;;;;;;;;;5091196;28;20238;-63
2021/07/30 12:55:04;;;;;;;13.50;7.43;;;;;;;;;;5091349;28;20213;-64
2021/07/30 12:57:53;;;;;;;9.30;7.30;;;;;;;;;;5089412;28;20647;-63
2021/07/30 13:00:33;;;;;;;8.33;7.23;;;;;;;;;;5096062;28;20244;-63
2021/07/30 13:03:01;;;;;;;10.13;6.90;;;;;;;;;;5098806;28;20754;-63
2021/07/30 13:05:31;;;;;;;14.43;7.37;;;;;;;;;;5087825;28;20204;-64
2021/07/30 13:08:00;;;;;;;13.47;7.20;;;;;;;;;;5079088;28;20295;-64
2021/07/30 13:10:28;;;;;;;12.20;7.73;;;;;;;;;;5079313;28;20206;-63
2021/07/30 13:12:56;;;;;;;14.00;9.10;;;;;;;;;;5079489;28;20316;-61
2021/07/30 13:15:24;;;;;;;13.47;8.77;;;;;;;;;;5087034;28;20570;-63
2021/07/30 13:17:53;;;;;;;14.73;7.97;;;;;;;;;;5079262;28;20640;-63
2021/07/30 13:20:21;;;;;;;11.60;8.17;;;;;;;;;;5094927;28;20209;-61
2021/07/30 13:22:49;;;;;;;10.50;8.07;;;;;;;;;;5096211;28;20232;-61
2021/07/30 13:25:17;;;;;;;11.97;7.90;;;;;;;;;;5083164;28;20652;-61
2021/07/30 13:27:45;;;;;;;8.17;7.17;;;;;;;;;;5078237;28;20665;-63
2021/07/30 13:30:13;;;;;;;10.43;7.80;;;;;;;;;;5098363;28;20580;-63
2021/07/30 13:32:41;;;;;;;8.20;6.80;;;;;;;;;;5086338;28;20226;-63
2021/07/30 13:35:11;;;;;;;9.67;7.70;;;;;;;;;;5077148;28;20203;-61
2021/07/30 13:37:39;;;;;;;12.33;7.40;;;;;;;;;;5082843;28;20207;-60
2021/07/30 13:40:10;;;;;;;7.77;7.03;;;;;;;;;;5088089;28;20292;-64
2021/07/30 13:42:38;;;;;;;9.30;6.87;;;;;;;;;;5091441;28;20252;-64
2021/07/30 13:45:06;;;;;;;13.03;8.43;;;;;;;;;;5082088;28;20203;-61
2021/07/30 13:47:34;;;;;;;10.37;6.70;;;;;;;;;;5098705;28;20213;-62
2021/07/30 13:50:03;;;;;;;10.30;7.30;;;;;;;;;;5083078;28;20231;-64
2021/07/30 13:52:33;;;;;;;11.23;7.70;;;;;;;;;;5096957;28;20235;-63
2021/07/30 13:55:01;;;;;;;14.43;8.00;;;;;;;;;;5083654;28;20207;-63
2021/07/30 13:57:28;;;;;;;12.57;7.90;;;;;;;;;;5098020;28;20659;-63
2021/07/30 13:59:57;;;;;;;9.73;7.17;;;;;;;;;;5098190;28;20206;-63
2021/07/30 14:02:25;;;;;;;9.73;7.00;;;;;;;;;;5078938;28;20229;-63
2021/07/30 14:04:53;;;;;;;11.07;6.93;;;;;;;;;;5096591;28;20203;-63
2021/07/30 14:07:21;;;;;;;7.90;6.87;;;;;;;;;;5097977;28;20232;-63
2021/07/30 14:09:50;;;;;;;11.03;7.53;;;;;;;;;;5090698;28;20207;-63
2021/07/30 14:12:18;;;;;;;11.43;8.00;;;;;;;;;;5084043;28;20596;-63
2021/07/30 14:14:46;;;;;;;10.00;7.63;;;;;;;;;;5077425;28;20207;-64
2021/07/30 14:17:14;;;;;;;9.03;7.70;;;;;;;;;;5096256;28;20209;-64
2021/07/30 14:19:42;;;;;;;11.20;8.53;;;;;;;;;;5097821;28;20229;-64
2021/07/30 14:22:10;;;;;;;9.23;8.27;;;;;;;;;;5083488;28;20230;-64
2021/07/30 14:24:38;;;;;;;11.50;7.63;;;;;;;;;;5084591;28;20203;-63
2021/07/30 14:27:09;;;;;;;9.20;7.20;;;;;;;;;;5095143;28;20684;-62
2021/07/30 14:29:37;;;;;;;9.63;7.40;;;;;;;;;;5093620;28;20231;-61
2021/07/30 14:32:06;;;;;;;11.03;7.83;;;;;;;;;;5088294;28;20307;-63
2021/07/30 14:34:34;;;;;;;10.50;8.53;;;;;;;;;;5102563;28;20201;-63
2021/07/30 14:37:02;;;;;;;10.33;8.27;;;;;;;;;;5093280;28;20203;-63
2021/07/30 14:39:30;;;;;;;10.93;8.23;;;;;;;;;;5096305;28;20284;-64
2021/07/30 14:41:57;;;;;;;12.20;8.97;;;;;;;;;;5085134;28;20318;-63
2021/07/30 14:44:27;;;;;;;10.50;9.13;;;;;;;;;;5075101;28;20209;-63
2021/07/30 14:46:55;;;;;;;13.40;8.73;;;;;;;;;;5078519;28;20200;-63
2021/07/30 14:49:23;;;;;;;11.10;8.83;;;;;;;;;;5080963;28;20203;-63
2021/07/30 14:51:51;;;;;;;10.93;9.07;;;;;;;;;;5096214;28;20223;-64
2021/07/30 14:54:19;;;;;;;11.20;8.30;;;;;;;;;;5086798;28;20659;-64